sensor_id;sensor_type;location;lat;lon;timestamp;P1;durP1;ratioP1;P2;durP2;ratioP2
62052;SDS011;48300;52.902;6.534;2022-09-09T00:00:17;11.57;;;5.28;;
62052;SDS011;48300;52.902;6.534;2022-09-09T00:02:46;8.95;;;5.40;;
62052;SDS011;48300;52.902;6.534;2022-09-09T00:07:46;8.60;;;5.38;;
62052;SDS011;48300;52.902;6.534;2022-09-09T00:12:50;8.05;;;5.03;;
62052;SDS011;48300;52.902;6.534;2022-09-09T00:15:20;9.63;;;5.05;;
62052;SDS011;48300;52.902;6.534;2022-09-09T00:20:16;25.60;;;4.95;;
62052;SDS011;48300;52.902;6.534;2022-09-09T00:22:47;11.07;;;5.50;;
62052;SDS011;48300;52.902;6.534;2022-09-09T00:25:16;11.80;;;6.18;;
62052;SDS011;48300;52.902;6.534;2022-09-09T00:27:47;10.00;;;6.10;;
62052;SDS011;48300;52.902;6.534;2022-09-09T00:30:16;15.07;;;6.43;;
62052;SDS011;48300;52.902;6.534;2022-09-09T00:32:45;12.38;;;5.68;;
62052;SDS011;48300;52.902;6.534;2022-09-09T00:35:22;13.35;;;5.32;;
62052;SDS011;48300;52.902;6.534;2022-09-09T00:37:50;7.95;;;5.15;;
62052;SDS011;48300;52.902;6.534;2022-09-09T00:40:25;13.30;;;5.05;;
62052;SDS011;48300;52.902;6.534;2022-09-09T00:43:04;10.95;;;5.47;;
62052;SDS011;48300;52.902;6.534;2022-09-09T00:48:10;9.85;;;4.95;;
62052;SDS011;48300;52.902;6.534;2022-09-09T00:50:49;11.35;;;5.50;;
62052;SDS011;48300;52.902;6.534;2022-09-09T00:55:54;8.73;;;5.63;;
62052;SDS011;48300;52.902;6.534;2022-09-09T00:58:22;13.35;;;5.75;;
62052;SDS011;48300;52.902;6.534;2022-09-09T01:00:51;12.57;;;5.15;;
62052;SDS011;48300;52.902;6.534;2022-09-09T01:05:59;13.20;;;5.45;;
62052;SDS011;48300;52.902;6.534;2022-09-09T01:08:33;10.75;;;4.85;;
62052;SDS011;48300;52.902;6.534;2022-09-09T01:11:00;12.77;;;6.18;;
62052;SDS011;48300;52.902;6.534;2022-09-09T01:15:56;14.93;;;5.32;;
62052;SDS011;48300;52.902;6.534;2022-09-09T01:18:26;10.38;;;5.13;;
62052;SDS011;48300;52.902;6.534;2022-09-09T01:21:02;13.02;;;5.57;;
62052;SDS011;48300;52.902;6.534;2022-09-09T01:28:27;10.20;;;5.32;;
62052;SDS011;48300;52.902;6.534;2022-09-09T01:30:54;7.20;;;4.90;;
62052;SDS011;48300;52.902;6.534;2022-09-09T01:33:21;10.07;;;4.63;;
62052;SDS011;48300;52.902;6.534;2022-09-09T01:35:58;8.13;;;5.35;;
62052;SDS011;48300;52.902;6.534;2022-09-09T01:38:26;11.57;;;4.97;;
62052;SDS011;48300;52.902;6.534;2022-09-09T01:40:52;13.30;;;5.80;;
62052;SDS011;48300;52.902;6.534;2022-09-09T01:43:20;10.88;;;5.57;;
62052;SDS011;48300;52.902;6.534;2022-09-09T01:48:13;12.88;;;5.05;;
62052;SDS011;48300;52.902;6.534;2022-09-09T01:50:39;13.02;;;5.78;;
62052;SDS011;48300;52.902;6.534;2022-09-09T01:53:05;10.65;;;4.88;;
62052;SDS011;48300;52.902;6.534;2022-09-09T01:55:33;11.35;;;4.80;;
62052;SDS011;48300;52.902;6.534;2022-09-09T01:58:13;11.57;;;4.60;;
62052;SDS011;48300;52.902;6.534;2022-09-09T02:00:44;11.60;;;5.43;;
62052;SDS011;48300;52.902;6.534;2022-09-09T02:03:20;10.73;;;4.60;;
62052;SDS011;48300;52.902;6.534;2022-09-09T02:08:15;11.00;;;4.63;;
62052;SDS011;48300;52.902;6.534;2022-09-09T02:10:46;10.88;;;4.65;;
62052;SDS011;48300;52.902;6.534;2022-09-09T02:13:14;11.23;;;4.70;;
62052;SDS011;48300;52.902;6.534;2022-09-09T02:15:47;12.23;;;4.80;;
62052;SDS011;48300;52.902;6.534;2022-09-09T02:18:15;8.50;;;4.32;;
62052;SDS011;48300;52.902;6.534;2022-09-09T02:20:44;9.88;;;4.43;;
62052;SDS011;48300;52.902;6.534;2022-09-09T02:23:10;10.25;;;4.22;;
62052;SDS011;48300;52.902;6.534;2022-09-09T02:25:37;8.60;;;3.80;;
62052;SDS011;48300;52.902;6.534;2022-09-09T02:28:05;11.55;;;4.30;;
62052;SDS011;48300;52.902;6.534;2022-09-09T02:30:32;13.50;;;4.10;;
62052;SDS011;48300;52.902;6.534;2022-09-09T02:33:00;14.00;;;4.70;;
62052;SDS011;48300;52.902;6.534;2022-09-09T02:35:27;8.23;;;4.20;;
62052;SDS011;48300;52.902;6.534;2022-09-09T02:37:56;11.60;;;3.92;;
62052;SDS011;48300;52.902;6.534;2022-09-09T02:40:24;9.80;;;5.22;;
62052;SDS011;48300;52.902;6.534;2022-09-09T02:42:50;19.58;;;4.75;;
62052;SDS011;48300;52.902;6.534;2022-09-09T02:45:17;13.57;;;4.43;;
62052;SDS011;48300;52.902;6.534;2022-09-09T02:47:53;8.20;;;4.28;;
62052;SDS011;48300;52.902;6.534;2022-09-09T02:50:24;8.45;;;4.45;;
62052;SDS011;48300;52.902;6.534;2022-09-09T02:55:18;11.18;;;4.22;;
62052;SDS011;48300;52.902;6.534;2022-09-09T02:57:46;7.75;;;4.28;;
62052;SDS011;48300;52.902;6.534;2022-09-09T03:00:13;9.68;;;3.70;;
62052;SDS011;48300;52.902;6.534;2022-09-09T03:02:39;11.30;;;4.28;;
62052;SDS011;48300;52.902;6.534;2022-09-09T03:05:07;15.05;;;4.05;;
62052;SDS011;48300;52.902;6.534;2022-09-09T03:07:33;9.30;;;3.80;;
62052;SDS011;48300;52.902;6.534;2022-09-09T03:10:00;6.88;;;3.72;;
62052;SDS011;48300;52.902;6.534;2022-09-09T03:12:26;7.20;;;3.80;;
62052;SDS011;48300;52.902;6.534;2022-09-09T03:14:52;9.48;;;3.42;;
62052;SDS011;48300;52.902;6.534;2022-09-09T03:17:18;9.25;;;3.58;;
62052;SDS011;48300;52.902;6.534;2022-09-09T03:19:44;7.45;;;3.80;;
62052;SDS011;48300;52.902;6.534;2022-09-09T03:22:10;7.00;;;4.07;;
62052;SDS011;48300;52.902;6.534;2022-09-09T03:24:38;7.63;;;3.85;;
62052;SDS011;48300;52.902;6.534;2022-09-09T03:27:05;8.35;;;3.65;;
62052;SDS011;48300;52.902;6.534;2022-09-09T03:29:32;9.77;;;4.00;;
62052;SDS011;48300;52.902;6.534;2022-09-09T03:31:58;7.93;;;3.88;;
62052;SDS011;48300;52.902;6.534;2022-09-09T03:34:24;8.23;;;3.80;;
62052;SDS011;48300;52.902;6.534;2022-09-09T03:36:50;7.10;;;3.60;;
62052;SDS011;48300;52.902;6.534;2022-09-09T03:39:16;8.13;;;3.38;;
62052;SDS011;48300;52.902;6.534;2022-09-09T03:41:42;8.90;;;3.67;;
62052;SDS011;48300;52.902;6.534;2022-09-09T03:46:37;6.75;;;3.20;;
62052;SDS011;48300;52.902;6.534;2022-09-09T03:49:03;18.92;;;3.17;;
62052;SDS011;48300;52.902;6.534;2022-09-09T03:51:29;7.63;;;3.85;;
62052;SDS011;48300;52.902;6.534;2022-09-09T03:53:55;7.32;;;3.22;;
62052;SDS011;48300;52.902;6.534;2022-09-09T03:56:23;9.48;;;3.50;;
62052;SDS011;48300;52.902;6.534;2022-09-09T03:58:50;11.02;;;4.32;;
62052;SDS011;48300;52.902;6.534;2022-09-09T04:01:16;11.68;;;4.30;;
62052;SDS011;48300;52.902;6.534;2022-09-09T04:03:43;7.45;;;4.15;;
62052;SDS011;48300;52.902;6.534;2022-09-09T04:06:10;10.40;;;4.45;;
62052;SDS011;48300;52.902;6.534;2022-09-09T04:08:38;11.15;;;4.20;;
62052;SDS011;48300;52.902;6.534;2022-09-09T04:11:05;8.73;;;4.57;;
62052;SDS011;48300;52.902;6.534;2022-09-09T04:13:33;6.18;;;4.03;;
62052;SDS011;48300;52.902;6.534;2022-09-09T04:16:00;10.45;;;4.43;;
62052;SDS011;48300;52.902;6.534;2022-09-09T04:18:27;8.50;;;4.07;;
62052;SDS011;48300;52.902;6.534;2022-09-09T04:20:53;9.60;;;4.63;;
62052;SDS011;48300;52.902;6.534;2022-09-09T04:25:50;9.45;;;4.68;;
62052;SDS011;48300;52.902;6.534;2022-09-09T04:28:17;8.57;;;4.57;;
62052;SDS011;48300;52.902;6.534;2022-09-09T04:30:44;15.07;;;4.30;;
62052;SDS011;48300;52.902;6.534;2022-09-09T04:33:10;10.10;;;5.13;;
62052;SDS011;48300;52.902;6.534;2022-09-09T04:35:37;8.32;;;4.50;;
62052;SDS011;48300;52.902;6.534;2022-09-09T04:38:04;15.50;;;5.05;;
62052;SDS011;48300;52.902;6.534;2022-09-09T04:40:30;9.43;;;5.43;;
62052;SDS011;48300;52.902;6.534;2022-09-09T04:42:58;10.82;;;5.88;;
62052;SDS011;48300;52.902;6.534;2022-09-09T04:45:24;11.50;;;5.30;;
62052;SDS011;48300;52.902;6.534;2022-09-09T04:47:51;12.27;;;6.72;;
62052;SDS011;48300;52.902;6.534;2022-09-09T04:50:17;11.18;;;5.85;;
62052;SDS011;48300;52.902;6.534;2022-09-09T04:52:44;12.77;;;5.63;;
62052;SDS011;48300;52.902;6.534;2022-09-09T04:55:10;10.15;;;6.00;;
62052;SDS011;48300;52.902;6.534;2022-09-09T04:57:37;15.95;;;6.63;;
62052;SDS011;48300;52.902;6.534;2022-09-09T05:00:04;10.80;;;5.82;;
62052;SDS011;48300;52.902;6.534;2022-09-09T05:02:30;13.27;;;6.05;;
62052;SDS011;48300;52.902;6.534;2022-09-09T05:04:57;11.38;;;6.30;;
62052;SDS011;48300;52.902;6.534;2022-09-09T05:07:23;12.20;;;6.40;;
62052;SDS011;48300;52.902;6.534;2022-09-09T05:09:51;9.55;;;5.85;;
62052;SDS011;48300;52.902;6.534;2022-09-09T05:12:17;12.13;;;6.00;;
62052;SDS011;48300;52.902;6.534;2022-09-09T05:14:44;14.35;;;5.75;;
62052;SDS011;48300;52.902;6.534;2022-09-09T05:17:10;11.52;;;5.65;;
62052;SDS011;48300;52.902;6.534;2022-09-09T05:19:36;9.90;;;6.60;;
62052;SDS011;48300;52.902;6.534;2022-09-09T05:22:03;9.45;;;6.03;;
62052;SDS011;48300;52.902;6.534;2022-09-09T05:24:30;11.20;;;5.72;;
62052;SDS011;48300;52.902;6.534;2022-09-09T05:26:58;11.07;;;5.90;;
62052;SDS011;48300;52.902;6.534;2022-09-09T05:31:52;13.93;;;6.00;;
62052;SDS011;48300;52.902;6.534;2022-09-09T05:34:19;10.10;;;5.20;;
62052;SDS011;48300;52.902;6.534;2022-09-09T05:36:45;10.65;;;5.85;;
62052;SDS011;48300;52.902;6.534;2022-09-09T05:39:12;9.52;;;5.22;;
62052;SDS011;48300;52.902;6.534;2022-09-09T05:41:38;12.68;;;5.80;;
62052;SDS011;48300;52.902;6.534;2022-09-09T05:44:05;9.65;;;5.15;;
62052;SDS011;48300;52.902;6.534;2022-09-09T05:46:31;12.05;;;5.95;;
62052;SDS011;48300;52.902;6.534;2022-09-09T05:48:57;8.48;;;5.65;;
62052;SDS011;48300;52.902;6.534;2022-09-09T05:51:25;12.13;;;5.93;;
62052;SDS011;48300;52.902;6.534;2022-09-09T05:53:53;10.38;;;5.50;;
62052;SDS011;48300;52.902;6.534;2022-09-09T05:56:22;15.13;;;5.82;;
62052;SDS011;48300;52.902;6.534;2022-09-09T05:58:50;11.70;;;5.72;;
62052;SDS011;48300;52.902;6.534;2022-09-09T06:01:17;12.52;;;6.07;;
62052;SDS011;48300;52.902;6.534;2022-09-09T06:03:44;10.35;;;4.95;;
62052;SDS011;48300;52.902;6.534;2022-09-09T06:06:12;8.35;;;5.20;;
62052;SDS011;48300;52.902;6.534;2022-09-09T06:08:39;8.93;;;5.40;;
62052;SDS011;48300;52.902;6.534;2022-09-09T06:11:07;9.73;;;5.57;;
62052;SDS011;48300;52.902;6.534;2022-09-09T06:13:34;12.20;;;5.68;;
62052;SDS011;48300;52.902;6.534;2022-09-09T06:16:02;10.18;;;5.38;;
62052;SDS011;48300;52.902;6.534;2022-09-09T06:18:29;11.25;;;5.45;;
62052;SDS011;48300;52.902;6.534;2022-09-09T06:20:56;10.48;;;5.32;;
62052;SDS011;48300;52.902;6.534;2022-09-09T06:23:22;11.27;;;5.75;;
62052;SDS011;48300;52.902;6.534;2022-09-09T06:25:49;11.50;;;5.35;;
62052;SDS011;48300;52.902;6.534;2022-09-09T06:28:16;8.38;;;5.15;;
62052;SDS011;48300;52.902;6.534;2022-09-09T06:30:42;10.43;;;5.38;;
62052;SDS011;48300;52.902;6.534;2022-09-09T06:33:09;8.88;;;4.90;;
62052;SDS011;48300;52.902;6.534;2022-09-09T06:35:35;15.88;;;5.57;;
62052;SDS011;48300;52.902;6.534;2022-09-09T06:38:02;9.88;;;5.53;;
62052;SDS011;48300;52.902;6.534;2022-09-09T06:40:28;11.30;;;5.97;;
62052;SDS011;48300;52.902;6.534;2022-09-09T06:42:58;15.88;;;5.88;;
62052;SDS011;48300;52.902;6.534;2022-09-09T06:45:26;9.82;;;5.00;;
62052;SDS011;48300;52.902;6.534;2022-09-09T06:47:54;11.38;;;5.32;;
62052;SDS011;48300;52.902;6.534;2022-09-09T06:52:46;9.18;;;4.93;;
62052;SDS011;48300;52.902;6.534;2022-09-09T06:55:13;9.80;;;5.57;;
62052;SDS011;48300;52.902;6.534;2022-09-09T06:57:40;8.80;;;4.97;;
62052;SDS011;48300;52.902;6.534;2022-09-09T07:00:07;11.68;;;5.32;;
62052;SDS011;48300;52.902;6.534;2022-09-09T07:02:33;10.95;;;5.70;;
62052;SDS011;48300;52.902;6.534;2022-09-09T07:05:04;13.48;;;6.00;;
62052;SDS011;48300;52.902;6.534;2022-09-09T07:07:30;8.63;;;5.47;;
62052;SDS011;48300;52.902;6.534;2022-09-09T07:09:56;11.57;;;5.68;;
62052;SDS011;48300;52.902;6.534;2022-09-09T07:12:22;8.68;;;4.75;;
62052;SDS011;48300;52.902;6.534;2022-09-09T07:14:48;9.60;;;5.65;;
62052;SDS011;48300;52.902;6.534;2022-09-09T07:17:15;10.40;;;5.20;;
62052;SDS011;48300;52.902;6.534;2022-09-09T07:19:41;14.57;;;4.93;;
62052;SDS011;48300;52.902;6.534;2022-09-09T07:22:08;9.80;;;4.68;;
62052;SDS011;48300;52.902;6.534;2022-09-09T07:24:35;10.03;;;5.23;;
62052;SDS011;48300;52.902;6.534;2022-09-09T07:27:02;9.13;;;4.57;;
62052;SDS011;48300;52.902;6.534;2022-09-09T07:29:28;8.48;;;4.85;;
62052;SDS011;48300;52.902;6.534;2022-09-09T07:31:54;10.70;;;5.15;;
62052;SDS011;48300;52.902;6.534;2022-09-09T07:34:20;8.98;;;5.22;;
62052;SDS011;48300;52.902;6.534;2022-09-09T07:36:47;13.73;;;4.63;;
62052;SDS011;48300;52.902;6.534;2022-09-09T07:39:14;10.48;;;4.60;;
62052;SDS011;48300;52.902;6.534;2022-09-09T07:41:42;8.10;;;4.88;;
62052;SDS011;48300;52.902;6.534;2022-09-09T07:46:36;8.77;;;4.35;;
62052;SDS011;48300;52.902;6.534;2022-09-09T07:49:04;10.65;;;4.82;;
62052;SDS011;48300;52.902;6.534;2022-09-09T07:51:32;11.88;;;4.72;;
62052;SDS011;48300;52.902;6.534;2022-09-09T07:53:59;13.38;;;5.45;;
62052;SDS011;48300;52.902;6.534;2022-09-09T07:56:27;10.18;;;4.63;;
62052;SDS011;48300;52.902;6.534;2022-09-09T07:58:54;9.52;;;4.70;;
62052;SDS011;48300;52.902;6.534;2022-09-09T08:01:21;21.65;;;6.38;;
62052;SDS011;48300;52.902;6.534;2022-09-09T08:03:53;10.95;;;5.07;;
62052;SDS011;48300;52.902;6.534;2022-09-09T08:06:19;11.48;;;5.82;;
62052;SDS011;48300;52.902;6.534;2022-09-09T08:08:49;12.05;;;5.40;;
62052;SDS011;48300;52.902;6.534;2022-09-09T08:11:15;12.43;;;5.80;;
62052;SDS011;48300;52.902;6.534;2022-09-09T08:13:42;8.77;;;5.55;;
62052;SDS011;48300;52.902;6.534;2022-09-09T08:16:10;12.98;;;5.97;;
62052;SDS011;48300;52.902;6.534;2022-09-09T08:18:37;12.90;;;5.35;;
62052;SDS011;48300;52.902;6.534;2022-09-09T08:21:05;10.05;;;5.32;;
62052;SDS011;48300;52.902;6.534;2022-09-09T08:23:31;11.52;;;5.60;;
62052;SDS011;48300;52.902;6.534;2022-09-09T08:26:04;11.77;;;6.05;;
62052;SDS011;48300;52.902;6.534;2022-09-09T08:28:30;15.07;;;6.25;;
62052;SDS011;48300;52.902;6.534;2022-09-09T08:31:04;10.02;;;5.32;;
62052;SDS011;48300;52.902;6.534;2022-09-09T08:33:30;10.30;;;5.50;;
62052;SDS011;48300;52.902;6.534;2022-09-09T08:35:57;9.73;;;5.68;;
62052;SDS011;48300;52.902;6.534;2022-09-09T08:38:24;11.02;;;5.47;;
62052;SDS011;48300;52.902;6.534;2022-09-09T08:40:50;17.98;;;6.82;;
62052;SDS011;48300;52.902;6.534;2022-09-09T08:43:20;11.98;;;5.85;;
62052;SDS011;48300;52.902;6.534;2022-09-09T08:45:55;16.55;;;6.15;;
62052;SDS011;48300;52.902;6.534;2022-09-09T08:48:46;16.88;;;5.07;;
62052;SDS011;48300;52.902;6.534;2022-09-09T08:51:14;12.45;;;5.20;;
62052;SDS011;48300;52.902;6.534;2022-09-09T08:53:42;14.20;;;4.93;;
62052;SDS011;48300;52.902;6.534;2022-09-09T08:56:11;8.68;;;4.93;;
62052;SDS011;48300;52.902;6.534;2022-09-09T08:58:42;21.25;;;5.25;;
62052;SDS011;48300;52.902;6.534;2022-09-09T09:06:05;9.65;;;3.65;;
62052;SDS011;48300;52.902;6.534;2022-09-09T09:08:36;14.52;;;4.50;;
62052;SDS011;48300;52.902;6.534;2022-09-09T09:11:03;7.45;;;4.10;;
62052;SDS011;48300;52.902;6.534;2022-09-09T09:13:34;11.43;;;3.45;;
62052;SDS011;48300;52.902;6.534;2022-09-09T09:16:16;10.23;;;4.28;;
62052;SDS011;48300;52.902;6.534;2022-09-09T09:18:43;11.77;;;3.65;;
62052;SDS011;48300;52.902;6.534;2022-09-09T09:21:14;5.68;;;3.17;;
62052;SDS011;48300;52.902;6.534;2022-09-09T09:23:55;8.48;;;3.17;;
62052;SDS011;48300;52.902;6.534;2022-09-09T09:26:23;13.05;;;3.50;;
62052;SDS011;48300;52.902;6.534;2022-09-09T09:28:52;9.35;;;2.78;;
62052;SDS011;48300;52.902;6.534;2022-09-09T09:31:21;9.98;;;2.75;;
62052;SDS011;48300;52.902;6.534;2022-09-09T09:33:50;10.25;;;3.10;;
62052;SDS011;48300;52.902;6.534;2022-09-09T09:36:18;13.23;;;2.95;;
62052;SDS011;48300;52.902;6.534;2022-09-09T09:38:52;10.88;;;2.80;;
62052;SDS011;48300;52.902;6.534;2022-09-09T09:41:28;9.95;;;2.67;;
62052;SDS011;48300;52.902;6.534;2022-09-09T09:43:55;9.20;;;2.80;;
62052;SDS011;48300;52.902;6.534;2022-09-09T09:46:22;9.82;;;2.40;;
62052;SDS011;48300;52.902;6.534;2022-09-09T09:48:56;10.93;;;2.73;;
62052;SDS011;48300;52.902;6.534;2022-09-09T09:51:23;6.85;;;2.25;;
62052;SDS011;48300;52.902;6.534;2022-09-09T09:53:50;10.93;;;2.45;;
62052;SDS011;48300;52.902;6.534;2022-09-09T09:56:25;6.03;;;2.08;;
62052;SDS011;48300;52.902;6.534;2022-09-09T09:58:52;7.72;;;2.20;;
62052;SDS011;48300;52.902;6.534;2022-09-09T10:01:24;8.13;;;2.10;;
62052;SDS011;48300;52.902;6.534;2022-09-09T10:03:53;9.88;;;1.90;;
62052;SDS011;48300;52.902;6.534;2022-09-09T10:06:29;16.13;;;2.67;;
62052;SDS011;48300;52.902;6.534;2022-09-09T10:08:55;10.20;;;1.95;;
62052;SDS011;48300;52.902;6.534;2022-09-09T10:11:41;10.98;;;2.65;;
62052;SDS011;48300;52.902;6.534;2022-09-09T10:14:19;7.35;;;1.83;;
62052;SDS011;48300;52.902;6.534;2022-09-09T10:16:50;7.78;;;2.05;;
62052;SDS011;48300;52.902;6.534;2022-09-09T10:21:56;7.75;;;1.90;;
62052;SDS011;48300;52.902;6.534;2022-09-09T10:27:05;6.05;;;1.80;;
62052;SDS011;48300;52.902;6.534;2022-09-09T10:32:09;8.68;;;2.35;;
62052;SDS011;48300;52.902;6.534;2022-09-09T10:37:29;10.15;;;2.05;;
62052;SDS011;48300;52.902;6.534;2022-09-09T10:42:51;6.93;;;1.90;;
62052;SDS011;48300;52.902;6.534;2022-09-09T10:45:29;14.80;;;2.20;;
62052;SDS011;48300;52.902;6.534;2022-09-09T10:55:37;4.47;;;1.38;;
62052;SDS011;48300;52.902;6.534;2022-09-09T10:58:04;8.82;;;1.67;;
62052;SDS011;48300;52.902;6.534;2022-09-09T11:00:40;7.03;;;1.55;;
62052;SDS011;48300;52.902;6.534;2022-09-09T11:03:10;5.10;;;1.80;;
62052;SDS011;48300;52.902;6.534;2022-09-09T11:05:42;5.80;;;1.20;;
62052;SDS011;48300;52.902;6.534;2022-09-09T11:13:20;8.30;;;1.75;;
62052;SDS011;48300;52.902;6.534;2022-09-09T11:15:53;10.55;;;1.83;;
62052;SDS011;48300;52.902;6.534;2022-09-09T11:18:22;6.55;;;1.63;;
62052;SDS011;48300;52.902;6.534;2022-09-09T11:20:50;6.13;;;1.30;;
62052;SDS011;48300;52.902;6.534;2022-09-09T11:23:19;15.02;;;1.85;;
62052;SDS011;48300;52.902;6.534;2022-09-09T11:25:50;13.63;;;1.80;;
62052;SDS011;48300;52.902;6.534;2022-09-09T11:31:00;8.25;;;1.58;;
62052;SDS011;48300;52.902;6.534;2022-09-09T11:36:19;6.00;;;1.40;;
62052;SDS011;48300;52.902;6.534;2022-09-09T11:38:50;5.65;;;1.42;;
62052;SDS011;48300;52.902;6.534;2022-09-09T11:41:17;7.05;;;1.60;;
62052;SDS011;48300;52.902;6.534;2022-09-09T11:43:46;9.20;;;1.70;;
62052;SDS011;48300;52.902;6.534;2022-09-09T11:46:14;6.63;;;1.60;;
62052;SDS011;48300;52.902;6.534;2022-09-09T11:48:43;8.30;;;1.90;;
62052;SDS011;48300;52.902;6.534;2022-09-09T11:53:48;11.82;;;1.85;;
62052;SDS011;48300;52.902;6.534;2022-09-09T11:56:23;7.53;;;1.37;;
62052;SDS011;48300;52.902;6.534;2022-09-09T11:59:01;7.32;;;1.70;;
62052;SDS011;48300;52.902;6.534;2022-09-09T12:06:42;13.10;;;1.33;;
62052;SDS011;48300;52.902;6.534;2022-09-09T12:09:14;7.30;;;1.70;;
62052;SDS011;48300;52.902;6.534;2022-09-09T12:11:43;8.13;;;1.52;;
62052;SDS011;48300;52.902;6.534;2022-09-09T12:14:19;5.40;;;1.00;;
62052;SDS011;48300;52.902;6.534;2022-09-09T12:16:46;10.90;;;1.60;;
62052;SDS011;48300;52.902;6.534;2022-09-09T12:19:14;5.85;;;1.63;;
62052;SDS011;48300;52.902;6.534;2022-09-09T12:21:49;6.93;;;1.52;;
62052;SDS011;48300;52.902;6.534;2022-09-09T12:24:19;5.43;;;1.38;;
62052;SDS011;48300;52.902;6.534;2022-09-09T12:26:53;5.68;;;1.20;;
62052;SDS011;48300;52.902;6.534;2022-09-09T12:29:29;6.25;;;1.25;;
62052;SDS011;48300;52.902;6.534;2022-09-09T12:32:04;9.00;;;1.40;;
62052;SDS011;48300;52.902;6.534;2022-09-09T12:34:34;5.75;;;1.27;;
62052;SDS011;48300;52.902;6.534;2022-09-09T12:37:04;6.18;;;1.17;;
62052;SDS011;48300;52.902;6.534;2022-09-09T12:39:33;5.07;;;1.10;;
62052;SDS011;48300;52.902;6.534;2022-09-09T12:42:00;6.82;;;1.20;;
62052;SDS011;48300;52.902;6.534;2022-09-09T12:46:56;5.50;;;1.23;;
62052;SDS011;48300;52.902;6.534;2022-09-09T12:51:51;7.88;;;1.55;;
62052;SDS011;48300;52.902;6.534;2022-09-09T12:54:18;6.28;;;1.08;;
62052;SDS011;48300;52.902;6.534;2022-09-09T12:56:45;8.60;;;1.33;;
62052;SDS011;48300;52.902;6.534;2022-09-09T12:59:21;6.07;;;1.50;;
62052;SDS011;48300;52.902;6.534;2022-09-09T13:01:54;10.32;;;1.38;;
62052;SDS011;48300;52.902;6.534;2022-09-09T13:04:21;6.63;;;1.40;;
62052;SDS011;48300;52.902;6.534;2022-09-09T13:06:47;6.90;;;1.45;;
62052;SDS011;48300;52.902;6.534;2022-09-09T13:09:14;6.25;;;1.90;;
62052;SDS011;48300;52.902;6.534;2022-09-09T13:11:41;6.20;;;1.60;;
62052;SDS011;48300;52.902;6.534;2022-09-09T13:14:18;5.25;;;1.40;;
62052;SDS011;48300;52.902;6.534;2022-09-09T13:16:54;5.35;;;1.50;;
62052;SDS011;48300;52.902;6.534;2022-09-09T13:19:21;7.70;;;1.50;;
62052;SDS011;48300;52.902;6.534;2022-09-09T13:21:47;8.50;;;1.85;;
62052;SDS011;48300;52.902;6.534;2022-09-09T13:24:25;4.95;;;1.20;;
62052;SDS011;48300;52.902;6.534;2022-09-09T13:26:54;8.43;;;1.33;;
62052;SDS011;48300;52.902;6.534;2022-09-09T13:29:21;4.97;;;1.55;;
62052;SDS011;48300;52.902;6.534;2022-09-09T13:31:48;5.03;;;1.40;;
62052;SDS011;48300;52.902;6.534;2022-09-09T13:34:27;4.22;;;1.20;;
62052;SDS011;48300;52.902;6.534;2022-09-09T13:36:57;8.90;;;0.95;;
62052;SDS011;48300;52.902;6.534;2022-09-09T13:39:26;7.38;;;0.90;;
62052;SDS011;48300;52.902;6.534;2022-09-09T13:41:52;6.30;;;0.80;;
62052;SDS011;48300;52.902;6.534;2022-09-09T13:44:20;6.93;;;0.85;;
62052;SDS011;48300;52.902;6.534;2022-09-09T13:46:59;8.70;;;1.17;;
62052;SDS011;48300;52.902;6.534;2022-09-09T13:49:26;17.00;;;1.70;;
62052;SDS011;48300;52.902;6.534;2022-09-09T13:54:20;8.20;;;0.80;;
62052;SDS011;48300;52.902;6.534;2022-09-09T13:56:48;6.50;;;0.57;;
62052;SDS011;48300;52.902;6.534;2022-09-09T13:59:16;3.53;;;0.35;;
62052;SDS011;48300;52.902;6.534;2022-09-09T14:01:44;6.30;;;0.70;;
62052;SDS011;48300;52.902;6.534;2022-09-09T14:04:11;2.67;;;0.63;;
62052;SDS011;48300;52.902;6.534;2022-09-09T14:06:37;5.03;;;0.80;;
62052;SDS011;48300;52.902;6.534;2022-09-09T14:09:05;7.00;;;0.93;;
62052;SDS011;48300;52.902;6.534;2022-09-09T14:11:32;4.00;;;1.10;;
62052;SDS011;48300;52.902;6.534;2022-09-09T14:13:58;7.07;;;0.80;;
62052;SDS011;48300;52.902;6.534;2022-09-09T14:16:26;3.22;;;1.00;;
62052;SDS011;48300;52.902;6.534;2022-09-09T14:18:53;6.00;;;1.17;;
62052;SDS011;48300;52.902;6.534;2022-09-09T14:21:21;5.82;;;0.90;;
62052;SDS011;48300;52.902;6.534;2022-09-09T14:23:48;4.57;;;1.13;;
62052;SDS011;48300;52.902;6.534;2022-09-09T14:26:14;5.50;;;1.63;;
62052;SDS011;48300;52.902;6.534;2022-09-09T14:28:40;6.28;;;0.70;;
62052;SDS011;48300;52.902;6.534;2022-09-09T14:31:07;0.90;;;0.40;;
62052;SDS011;48300;52.902;6.534;2022-09-09T14:33:35;1.92;;;0.47;;
62052;SDS011;48300;52.902;6.534;2022-09-09T14:36:02;2.47;;;0.65;;
62052;SDS011;48300;52.902;6.534;2022-09-09T14:38:29;1.27;;;0.50;;
62052;SDS011;48300;52.902;6.534;2022-09-09T14:40:56;2.78;;;0.60;;
62052;SDS011;48300;52.902;6.534;2022-09-09T14:43:23;3.30;;;0.45;;
62052;SDS011;48300;52.902;6.534;2022-09-09T14:45:49;3.75;;;0.63;;
62052;SDS011;48300;52.902;6.534;2022-09-09T14:48:17;2.17;;;0.52;;
62052;SDS011;48300;52.902;6.534;2022-09-09T14:50:44;2.83;;;0.50;;
62052;SDS011;48300;52.902;6.534;2022-09-09T14:53:10;4.50;;;0.68;;
62052;SDS011;48300;52.902;6.534;2022-09-09T14:55:37;2.92;;;0.50;;
62052;SDS011;48300;52.902;6.534;2022-09-09T14:58:04;3.05;;;0.50;;
62052;SDS011;48300;52.902;6.534;2022-09-09T15:00:31;3.13;;;0.80;;
62052;SDS011;48300;52.902;6.534;2022-09-09T15:02:57;6.05;;;0.90;;
62052;SDS011;48300;52.902;6.534;2022-09-09T15:05:23;1.30;;;0.40;;
62052;SDS011;48300;52.902;6.534;2022-09-09T15:07:50;5.57;;;0.80;;
62052;SDS011;48300;52.902;6.534;2022-09-09T15:10:16;2.60;;;0.60;;
62052;SDS011;48300;52.902;6.534;2022-09-09T15:12:42;4.28;;;0.50;;
62052;SDS011;48300;52.902;6.534;2022-09-09T15:15:09;7.25;;;0.68;;
62052;SDS011;48300;52.902;6.534;2022-09-09T15:17:35;2.42;;;0.57;;
62052;SDS011;48300;52.902;6.534;2022-09-09T15:20:02;2.97;;;0.90;;
62052;SDS011;48300;52.902;6.534;2022-09-09T15:22:30;1.55;;;0.60;;
62052;SDS011;48300;52.902;6.534;2022-09-09T15:24:57;3.58;;;0.73;;
62052;SDS011;48300;52.902;6.534;2022-09-09T15:27:23;3.38;;;0.60;;
62052;SDS011;48300;52.902;6.534;2022-09-09T15:29:49;3.00;;;0.90;;
62052;SDS011;48300;52.902;6.534;2022-09-09T15:32:17;4.18;;;0.70;;
62052;SDS011;48300;52.902;6.534;2022-09-09T15:34:43;3.97;;;0.50;;
62052;SDS011;48300;52.902;6.534;2022-09-09T15:37:10;4.50;;;0.80;;
62052;SDS011;48300;52.902;6.534;2022-09-09T15:39:38;4.55;;;0.73;;
62052;SDS011;48300;52.902;6.534;2022-09-09T15:42:06;2.03;;;0.70;;
62052;SDS011;48300;52.902;6.534;2022-09-09T15:44:40;4.93;;;0.80;;
62052;SDS011;48300;52.902;6.534;2022-09-09T15:47:07;2.58;;;0.60;;
62052;SDS011;48300;52.902;6.534;2022-09-09T15:49:34;1.73;;;0.73;;
62052;SDS011;48300;52.902;6.534;2022-09-09T15:52:00;2.08;;;0.85;;
62052;SDS011;48300;52.902;6.534;2022-09-09T15:54:30;4.55;;;0.70;;
62052;SDS011;48300;52.902;6.534;2022-09-09T15:56:58;1.25;;;0.63;;
62052;SDS011;48300;52.902;6.534;2022-09-09T15:59:25;3.83;;;0.75;;
62052;SDS011;48300;52.902;6.534;2022-09-09T16:01:52;6.28;;;0.70;;
62052;SDS011;48300;52.902;6.534;2022-09-09T16:04:20;6.50;;;1.05;;
62052;SDS011;48300;52.902;6.534;2022-09-09T16:06:51;3.92;;;1.05;;
62052;SDS011;48300;52.902;6.534;2022-09-09T16:09:17;2.92;;;1.00;;
62052;SDS011;48300;52.902;6.534;2022-09-09T16:11:44;3.95;;;0.80;;
62052;SDS011;48300;52.902;6.534;2022-09-09T16:14:12;3.38;;;1.02;;
62052;SDS011;48300;52.902;6.534;2022-09-09T16:16:38;3.17;;;0.73;;
62052;SDS011;48300;52.902;6.534;2022-09-09T16:21:35;3.53;;;1.48;;
62052;SDS011;48300;52.902;6.534;2022-09-09T16:24:03;3.83;;;1.00;;
62052;SDS011;48300;52.902;6.534;2022-09-09T16:26:30;6.85;;;0.98;;